Time;durP1;ratioP1;P1;durP2;ratioP2;P2;SDS_P1;SDS_P2;PMS_P1;PMS_P2;Temp;Humidity;BMP_temperature;BMP_pressure;BME280_temperature;BME280_humidity;BME280_pressure;Samples;Min_cycle;Max_cycle;Signal;HPM_P1;HPM_P2
2023/07/13 00:02:33;;;;;;;;;;;;;;;;;;5091720;27;19916;-69
2023/07/13 00:06:32;;;;;;;;;;;;;;;;;;5091046;28;19919;-69
2023/07/13 00:10:32;;;;;;;;;;;;;;;;;;5092077;27;19917;-70
2023/07/13 00:12:57;;;;;;;;;;;;;;;;;;5091065;28;20007;-70
2023/07/13 00:15:23;;;;;;;;;;;;;;;;;;5090000;28;19909;-70
2023/07/13 00:18:44;;;;;;;;;;;;;;;;;;5112201;27;19916;-70
2023/07/13 00:24:12;;;;;;;;;;;;;;;;;;5111913;27;19922;-69
2023/07/13 00:26:38;;;;;;;;;;;;;;;;;;5111311;28;19912;-69
2023/07/13 00:30:55;;;;;;;;;;;;;;;;;;5112526;27;20364;-70
2023/07/13 00:33:21;;;;;;;;;;;;;;;;;;5110490;28;19918;-70
2023/07/13 00:35:47;;;;;;;;;;;;;;;;;;5110328;28;19930;-70
2023/07/13 00:38:13;;;;;;;;;;;;;;;;;;5110344;28;19908;-69
2023/07/13 00:41:32;;;;;;;;;;;;;;;;;;5111469;27;20384;-69
2023/07/13 00:43:58;;;;;;;;;;;;;;;;;;5111647;28;20006;-70
2023/07/13 00:51:47;;;;;;;;;;;;;;;;;;5112147;27;19912;-69
2023/07/13 00:54:13;;;;;;;;;;;;;;;;;;5111246;28;20421;-70
2023/07/13 00:57:09;;;;;;;;;;;;;;;;;;5111954;27;19912;-70
2023/07/13 00:59:35;;;;;;;;;;;;;;;;;;5111625;28;19944;-70
2023/07/13 01:02:01;;;;;;;;;;;;;;;;;;5111243;28;20355;-70
2023/07/13 01:04:27;;;;;;;;;;;;;;;;;;5111568;28;19912;-70
2023/07/13 01:06:52;;;;;;;;;;;;;;;;;;5111545;28;19914;-70
2023/07/13 01:09:18;;;;;;;;;;;;;;;;;;5111031;28;19951;-70
2023/07/13 01:11:45;;;;;;;;;;;;;;;;;;5111433;28;19908;-70
2023/07/13 01:15:54;;;;;;;;;;;;;;;;;;5091202;27;19913;-70
2023/07/13 01:18:20;;;;;;;;;;;;;;;;;;5091257;28;20341;-69
2023/07/13 01:22:49;;;;;;;;;;;;;;;;;;5091462;28;19916;-69
2023/07/13 01:25:49;;;;;;;;;;;;;;;;;;5092125;27;20279;-69
2023/07/13 01:28:16;;;;;;;;;;;;;;;;;;5090085;28;19991;-69
2023/07/13 01:35:03;;;;;;;;;;;;;;;;;;5112301;27;19916;-71
2023/07/13 01:37:33;;;;;;;;;;;;;;;;;;5111384;28;19999;-70
2023/07/13 01:39:59;;;;;;;;;;;;;;;;;;5111636;28;19908;-70
2023/07/13 01:43:25;;;;;;;;;;;;;;;;;;5173906;27;19911;-70
2023/07/13 01:45:51;;;;;;;;;;;;;;;;;;5155002;27;19911;-71
2023/07/13 01:48:50;;;;;;;;;;;;;;;;;;5071144;28;19935;-72
2023/07/13 01:51:16;;;;;;;;;;;;;;;;;;5070808;28;20007;-71
2023/07/13 01:53:42;;;;;;;;;;;;;;;;;;5071024;28;19909;-71
2023/07/13 01:56:08;;;;;;;;;;;;;;;;;;5071023;28;19948;-70
2023/07/13 01:58:34;;;;;;;;;;;;;;;;;;5070577;28;19943;-70
2023/07/13 02:03:01;;;;;;;;;;;;;;;;;;5153100;27;20002;-69
2023/07/13 02:05:27;;;;;;;;;;;;;;;;;;5153131;27;19953;-70
2023/07/13 02:07:53;;;;;;;;;;;;;;;;;;5152755;27;19942;-69
2023/07/13 02:12:46;;;;;;;;;;;;;;;;;;5111441;27;19912;-70
2023/07/13 02:15:12;;;;;;;;;;;;;;;;;;5111848;28;20006;-70
2023/07/13 02:20:57;;;;;;;;;;;;;;;;;;5091461;27;19913;-69
2023/07/13 02:23:23;;;;;;;;;;;;;;;;;;5090017;28;19995;-69
2023/07/13 02:26:53;;;;;;;;;;;;;;;;;;5111602;27;19912;-70
2023/07/13 02:30:11;;;;;;;;;;;;;;;;;;5112053;27;20291;-70
2023/07/13 02:32:37;;;;;;;;;;;;;;;;;;5111298;28;20010;-70
2023/07/13 02:36:06;;;;;;;;;;;;;;;;;;5112048;27;19916;-70
2023/07/13 02:42:03;;;;;;;;;;;;;;;;;;5091734;28;19916;-70
2023/07/13 02:46:26;;;;;;;;;;;;;;;;;;5091773;27;20281;-71
2023/07/13 02:49:51;;;;;;;;;;;;;;;;;;5092189;28;19916;-72
2023/07/13 02:52:17;;;;;;;;;;;;;;;;;;5091406;28;20011;-72
2023/07/13 02:54:43;;;;;;;;;;;;;;;;;;5090946;28;20360;-71
2023/07/13 02:57:09;;;;;;;;;;;;;;;;;;5091312;28;20335;-71
2023/07/13 03:01:24;;;;;;;;;;;;;;;;;;5111554;27;19918;-72
2023/07/13 03:04:29;;;;;;;;;;;;;;;;;;5092182;27;20269;-71
2023/07/13 03:06:57;;;;;;;;;;;;;;;;;;5091455;28;20003;-72
2023/07/13 03:09:23;;;;;;;;;;;;;;;;;;5090890;28;19917;-71
2023/07/13 03:11:49;;;;;;;;;;;;;;;;;;5091348;28;20004;-71
2023/07/13 03:15:19;;;;;;;;;;;;;;;;;;5111606;27;19916;-70
2023/07/13 03:20:11;;;;;;;;;;;;;;;;;;5112432;27;19916;-71
2023/07/13 03:22:37;;;;;;;;;;;;;;;;;;5111672;28;19912;-70
2023/07/13 03:25:03;;;;;;;;;;;;;;;;;;5111673;28;20368;-70
2023/07/13 03:29:06;;;;;;;;;;;;;;;;;;5132305;27;20006;-71
2023/07/13 03:31:53;;;;;;;;;;;;;;;;;;5072191;28;19923;-70
2023/07/13 03:34:19;;;;;;;;;;;;;;;;;;5071189;28;20007;-70
2023/07/13 03:36:45;;;;;;;;;;;;;;;;;;5070765;28;19908;-72
2023/07/13 03:39:11;;;;;;;;;;;;;;;;;;5071176;28;19915;-69
2023/07/13 03:42:28;;;;;;;;;;;;;;;;;;5112008;27;19916;-72
2023/07/13 03:44:54;;;;;;;;;;;;;;;;;;5111335;28;20340;-72
2023/07/13 03:49:12;;;;;;;;;;;;;;;;;;5111701;27;19922;-71
2023/07/13 03:58:37;;;;;;;;;;;;;;;;;;5111461;27;20410;-70
2023/07/13 04:01:03;;;;;;;;;;;;;;;;;;5110512;28;19998;-70
2023/07/13 04:10:57;;;;;;;;;;;;;;;;;;5091407;28;20308;-69
2023/07/13 04:14:45;;;;;;;;;;;;;;;;;;5091754;27;20280;-69
2023/07/13 04:17:11;;;;;;;;;;;;;;;;;;5091380;28;19912;-70
2023/07/13 04:19:37;;;;;;;;;;;;;;;;;;5090938;28;20426;-69
2023/07/13 04:22:03;;;;;;;;;;;;;;;;;;5091226;28;19909;-69
2023/07/13 04:26:59;;;;;;;;;;;;;;;;;;5111384;27;19916;-70
2023/07/13 04:29:25;;;;;;;;;;;;;;;;;;5110656;28;19979;-70
2023/07/13 04:32:01;;;;;;;;;;;;;;;;;;5091997;27;19916;-70
2023/07/13 04:34:57;;;;;;;;;;;;;;;;;;5132925;27;19912;-70
2023/07/13 04:37:35;;;;;;;;;;;;;;;;;;5112720;27;19922;-69
2023/07/13 04:48:30;;;;;;;;;;;;;;;;;;5091677;27;19917;-69
2023/07/13 04:50:56;;;;;;;;;;;;;;;;;;5091753;28;20428;-69
2023/07/13 04:53:22;;;;;;;;;;;;;;;;;;5090836;28;19944;-69
2023/07/13 04:55:48;;;;;;;;;;;;;;;;;;5091285;28;19908;-69
2023/07/13 05:02:09;;;;;;;;;;;;;;;;;;5091064;27;19922;-71
2023/07/13 05:04:35;;;;;;;;;;;;;;;;;;5090101;28;19962;-71
2023/07/13 05:10:57;;;;;;;;;;;;;;;;;;5112583;27;19912;-69
2023/07/13 05:13:23;;;;;;;;;;;;;;;;;;5110436;28;20006;-71
2023/07/13 05:15:49;;;;;;;;;;;;;;;;;;5111134;28;19911;-71
2023/07/13 05:18:15;;;;;;;;;;;;;;;;;;5111621;28;19934;-72
2023/07/13 05:20:41;;;;;;;;;;;;;;;;;;5111716;28;20004;-71
2023/07/13 05:23:07;;;;;;;;;;;;;;;;;;5111243;28;19912;-71
2023/07/13 05:26:04;;;;;;;;;;;;;;;;;;5088407;27;19923;-72
2023/07/13 05:28:30;;;;;;;;;;;;;;;;;;5091039;28;20330;-72
2023/07/13 05:30:56;;;;;;;;;;;;;;;;;;5089085;28;19954;-73
2023/07/13 05:33:22;;;;;;;;;;;;;;;;;;5090792;28;19908;-72
2023/07/13 05:35:48;;;;;;;;;;;;;;;;;;5089645;28;19919;-72
2023/07/13 05:38:14;;;;;;;;;;;;;;;;;;5091115;28;20669;-72
2023/07/13 05:42:01;;;;;;;;;;;;;;;;;;5091273;28;20394;-71
2023/07/13 05:45:54;;;;;;;;;;;;;;;;;;5111677;27;20406;-72
2023/07/13 05:48:19;;;;;;;;;;;;;;;;;;5111323;28;20368;-71
2023/07/13 05:50:45;;;;;;;;;;;;;;;;;;5109905;28;19919;-71
2023/07/13 05:53:12;;;;;;;;;;;;;;;;;;5111512;28;19912;-73
2023/07/13 06:01:23;;;;;;;;;;;;;;;;;;5111462;27;20277;-72
2023/07/13 06:03:49;;;;;;;;;;;;;;;;;;5111173;28;19952;-73
2023/07/13 06:06:15;;;;;;;;;;;;;;;;;;5113634;28;19954;-72
2023/07/13 06:08:41;;;;;;;;;;;;;;;;;;5132037;27;19919;-74
2023/07/13 06:11:07;;;;;;;;;;;;;;;;;;5127283;28;19985;-72
2023/07/13 06:17:48;;;;;;;;;;;;;;;;;;5091020;27;19919;-72
2023/07/13 06:24:20;;;;;;;;;;;;;;;;;;5111881;27;19923;-72
2023/07/13 06:27:39;;;;;;;;;;;;;;;;;;5111614;27;19912;-72
2023/07/13 06:30:05;;;;;;;;;;;;;;;;;;5110314;28;20424;-72
2023/07/13 06:32:31;;;;;;;;;;;;;;;;;;5110897;28;19912;-73
2023/07/13 06:34:57;;;;;;;;;;;;;;;;;;5110267;28;19916;-72
2023/07/13 06:37:23;;;;;;;;;;;;;;;;;;5109854;28;20001;-73
2023/07/13 06:39:49;;;;;;;;;;;;;;;;;;5110797;28;19908;-72
2023/07/13 06:42:15;;;;;;;;;;;;;;;;;;5111236;28;19908;-73
2023/07/13 06:44:41;;;;;;;;;;;;;;;;;;5110071;28;19908;-71
2023/07/13 06:47:06;;;;;;;;;;;;;;;;;;5109492;28;20435;-71
2023/07/13 06:50:57;;;;;;;;;;;;;;;;;;5111676;27;20406;-71
2023/07/13 06:53:23;;;;;;;;;;;;;;;;;;5109688;28;19912;-70
2023/07/13 06:55:49;;;;;;;;;;;;;;;;;;5111470;28;20401;-71
2023/07/13 06:58:15;;;;;;;;;;;;;;;;;;5111524;28;19908;-72
2023/07/13 07:04:57;;;;;;;;;;;;;;;;;;5111647;27;20369;-69
2023/07/13 07:07:22;;;;;;;;;;;;;;;;;;5109565;28;20003;-68
2023/07/13 07:09:48;;;;;;;;;;;;;;;;;;5110559;28;19908;-70
2023/07/13 07:14:42;;;;;;;;;;;;;;;;;;5090725;28;19913;-70
2023/07/13 07:17:08;;;;;;;;;;;;;;;;;;5091010;28;20000;-69
2023/07/13 07:19:34;;;;;;;;;;;;;;;;;;5090968;28;20447;-70
2023/07/13 07:22:00;;;;;;;;;;;;;;;;;;5089302;28;20394;-68
2023/07/13 07:24:26;;;;;;;;;;;;;;;;;;5089677;28;20261;-68
2023/07/13 07:26:52;;;;;;;;;;;;;;;;;;5089549;28;20330;-69
2023/07/13 07:29:18;;;;;;;;;;;;;;;;;;5090444;28;20421;-69
2023/07/13 07:31:44;;;;;;;;;;;;;;;;;;5090131;28;19909;-69
2023/07/13 07:34:10;;;;;;;;;;;;;;;;;;5089284;28;19969;-68
2023/07/13 07:36:36;;;;;;;;;;;;;;;;;;5089856;28;20069;-69
2023/07/13 07:39:02;;;;;;;;;;;;;;;;;;5089336;28;19909;-70
2023/07/13 07:41:28;;;;;;;;;;;;;;;;;;5089350;28;19908;-69
2023/07/13 07:43:54;;;;;;;;;;;;;;;;;;5090186;28;19999;-69
2023/07/13 07:46:20;;;;;;;;;;;;;;;;;;5090450;28;20475;-69
2023/07/13 07:48:46;;;;;;;;;;;;;;;;;;5090552;28;20318;-70
2023/07/13 07:51:13;;;;;;;;;;;;;;;;;;5089976;28;20258;-69
2023/07/13 07:53:39;;;;;;;;;;;;;;;;;;5089083;28;19920;-70
2023/07/13 07:56:05;;;;;;;;;;;;;;;;;;5089874;28;19908;-70
2023/07/13 07:58:31;;;;;;;;;;;;;;;;;;5090454;28;19934;-70
2023/07/13 08:00:57;;;;;;;;;;;;;;;;;;5090285;28;19916;-68
2023/07/13 08:03:23;;;;;;;;;;;;;;;;;;5089741;28;19912;-69
2023/07/13 08:05:49;;;;;;;;;;;;;;;;;;5090246;28;20012;-69
2023/07/13 08:08:15;;;;;;;;;;;;;;;;;;5090071;28;19912;-69
2023/07/13 08:10:41;;;;;;;;;;;;;;;;;;5089762;28;19915;-69
2023/07/13 08:13:07;;;;;;;;;;;;;;;;;;5088459;28;19920;-69
2023/07/13 08:15:33;;;;;;;;;;;;;;;;;;5090139;28;19908;-68
2023/07/13 08:17:59;;;;;;;;;;;;;;;;;;5089545;28;19913;-69
2023/07/13 08:20:25;;;;;;;;;;;;;;;;;;5089467;28;20361;-68
2023/07/13 08:22:51;;;;;;;;;;;;;;;;;;5089673;28;19919;-69
2023/07/13 08:25:17;;;;;;;;;;;;;;;;;;5079931;28;20365;-70
2023/07/13 08:27:43;;;;;;;;;;;;;;;;;;5075076;28;19935;-68
2023/07/13 08:30:09;;;;;;;;;;;;;;;;;;5074798;28;19999;-69
2023/07/13 08:32:38;;;;;;;;;;;;;;;;;;5075869;28;20011;-70
2023/07/13 08:35:04;;;;;;;;;;;;;;;;;;5074820;28;19958;-69
2023/07/13 08:37:34;;;;;;;;;;;;;;;;;;5074865;28;19909;-69
2023/07/13 08:40:00;;;;;;;;;;;;;;;;;;5075730;28;20333;-69
2023/07/13 08:44:19;;;;;;;;;;;;;;;;;;5152888;27;20323;-69
2023/07/13 08:46:45;;;;;;;;;;;;;;;;;;5152404;27;19918;-70
2023/07/13 08:49:11;;;;;;;;;;;;;;;;;;5134157;27;19907;-70
2023/07/13 08:51:37;;;;;;;;;;;;;;;;;;5152662;27;19912;-70
2023/07/13 08:54:03;;;;;;;;;;;;;;;;;;5133544;27;19912;-69
2023/07/13 08:56:29;;;;;;;;;;;;;;;;;;5152609;27;19930;-68
2023/07/13 08:58:55;;;;;;;;;;;;;;;;;;5140148;27;20316;-69
2023/07/13 09:01:21;;;;;;;;;;;;;;;;;;5131169;28;20325;-69
2023/07/13 09:03:47;;;;;;;;;;;;;;;;;;5111192;28;19920;-68
2023/07/13 09:06:13;;;;;;;;;;;;;;;;;;5131119;28;19998;-69
2023/07/13 09:08:39;;;;;;;;;;;;;;;;;;5131620;28;20016;-68
2023/07/13 09:11:05;;;;;;;;;;;;;;;;;;5131468;28;19908;-69
2023/07/13 09:13:31;;;;;;;;;;;;;;;;;;5131007;28;19908;-69
2023/07/13 09:15:58;;;;;;;;;;;;;;;;;;5130136;28;19995;-68
2023/07/13 09:18:24;;;;;;;;;;;;;;;;;;5130644;28;19908;-70
2023/07/13 09:20:50;;;;;;;;;;;;;;;;;;5130923;28;19959;-68
2023/07/13 09:23:17;;;;;;;;;;;;;;;;;;5112754;28;19958;-71
2023/07/13 09:25:43;;;;;;;;;;;;;;;;;;5131226;28;19991;-70
2023/07/13 09:28:09;;;;;;;;;;;;;;;;;;5130768;28;19960;-71
2023/07/13 09:30:35;;;;;;;;;;;;;;;;;;5130984;27;19912;-70
2023/07/13 09:33:01;;;;;;;;;;;;;;;;;;5112596;28;19914;-69
2023/07/13 09:35:27;;;;;;;;;;;;;;;;;;5112185;28;19918;-69
2023/07/13 09:37:54;;;;;;;;;;;;;;;;;;5131117;28;19908;-69
2023/07/13 09:40:20;;;;;;;;;;;;;;;;;;5130906;28;19908;-69
2023/07/13 09:42:46;;;;;;;;;;;;;;;;;;5130088;28;19919;-70
2023/07/13 09:45:12;;;;;;;;;;;;;;;;;;5131581;28;19908;-69
2023/07/13 09:47:38;;;;;;;;;;;;;;;;;;5131040;28;19907;-70
2023/07/13 09:50:04;;;;;;;;;;;;;;;;;;5112188;28;19912;-69
2023/07/13 09:52:30;;;;;;;;;;;;;;;;;;5129208;27;19915;-69
2023/07/13 09:54:59;;;;;;;;;;;;;;;;;;5120299;27;19908;-69
2023/07/13 09:57:25;;;;;;;;;;;;;;;;;;5116618;28;19908;-70
2023/07/13 09:59:51;;;;;;;;;;;;;;;;;;5116977;28;19953;-70
2023/07/13 10:02:17;;;;;;;;;;;;;;;;;;5133080;27;19916;-69
2023/07/13 10:04:43;;;;;;;;;;;;;;;;;;5136863;27;19911;-69
2023/07/13 10:07:09;;;;;;;;;;;;;;;;;;5137463;27;19953;-69
2023/07/13 10:09:38;;;;;;;;;;;;;;;;;;5136990;27;19908;-70
2023/07/13 10:12:04;;;;;;;;;;;;;;;;;;5137467;27;19908;-70
2023/07/13 10:14:30;;;;;;;;;;;;;;;;;;5137335;27;19961;-70
2023/07/13 10:16:55;;;;;;;;;;;;;;;;;;5118230;27;19946;-69
2023/07/13 10:19:22;;;;;;;;;;;;;;;;;;5118687;27;19979;-68
2023/07/13 10:21:48;;;;;;;;;;;;;;;;;;5137059;27;19907;-69
2023/07/13 10:24:14;;;;;;;;;;;;;;;;;;5136630;27;19915;-70
2023/07/13 10:26:40;;;;;;;;;;;;;;;;;;5136927;27;19907;-70
2023/07/13 10:29:07;;;;;;;;;;;;;;;;;;5136964;27;19908;-69
2023/07/13 10:31:33;;;;;;;;;;;;;;;;;;5136615;27;19907;-71
2023/07/13 10:33:59;;;;;;;;;;;;;;;;;;5136859;27;19915;-71
2023/07/13 10:36:25;;;;;;;;;;;;;;;;;;5136909;27;19907;-70
2023/07/13 10:38:51;;;;;;;;;;;;;;;;;;5136371;27;19919;-69
2023/07/13 10:41:17;;;;;;;;;;;;;;;;;;5136636;27;19951;-71
2023/07/13 10:43:44;;;;;;;;;;;;;;;;;;5136217;27;19973;-71
2023/07/13 10:46:09;;;;;;;;;;;;;;;;;;5136190;27;19907;-70
2023/07/13 10:48:36;;;;;;;;;;;;;;;;;;5136486;27;19950;-71
2023/07/13 10:51:02;;;;;;;;;;;;;;;;;;5136621;27;19960;-70
2023/07/13 10:53:28;;;;;;;;;;;;;;;;;;5136048;27;19907;-71
2023/07/13 10:55:54;;;;;;;;;;;;;;;;;;5118007;27;19908;-70
2023/07/13 10:58:20;;;;;;;;;;;;;;;;;;5136438;27;19930;-71
2023/07/13 11:00:47;;;;;;;;;;;;;;;;;;5135894;27;20049;-70
2023/07/13 11:03:12;;;;;;;;;;;;;;;;;;5136277;27;19915;-70
2023/07/13 11:05:39;;;;;;;;;;;;;;;;;;5135447;27;19915;-71
2023/07/13 11:08:05;;;;;;;;;;;;;;;;;;5135548;27;19907;-70
2023/07/13 11:10:31;;;;;;;;;;;;;;;;;;5136195;27;20290;-70
2023/07/13 11:12:57;;;;;;;;;;;;;;;;;;5117105;27;20294;-70
2023/07/13 11:15:23;;;;;;;;;;;;;;;;;;5136030;27;19914;-70
2023/07/13 11:17:49;;;;;;;;;;;;;;;;;;5136095;27;19947;-70
2023/07/13 11:20:15;;;;;;;;;;;;;;;;;;5135556;27;19908;-70
2023/07/13 11:22:42;;;;;;;;;;;;;;;;;;5135527;27;19915;-69
2023/07/13 11:25:08;;;;;;;;;;;;;;;;;;5135908;27;19930;-71
2023/07/13 11:30:27;;;;;;;;;;;;;;;;;;5130925;27;19919;-71
2023/07/13 11:32:53;;;;;;;;;;;;;;;;;;5114870;28;19923;-72
2023/07/13 11:35:18;;;;;;;;;;;;;;;;;;5114555;28;19908;-71
2023/07/13 11:37:44;;;;;;;;;;;;;;;;;;5115115;28;19985;-71
2023/07/13 11:40:10;;;;;;;;;;;;;;;;;;5096894;28;19973;-71
2023/07/13 11:42:36;;;;;;;;;;;;;;;;;;5114089;28;19920;-71
2023/07/13 11:45:02;;;;;;;;;;;;;;;;;;5115021;28;19914;-69
2023/07/13 11:47:28;;;;;;;;;;;;;;;;;;5114966;28;19907;-69
2023/07/13 11:49:57;;;;;;;;;;;;;;;;;;5114547;28;20393;-69
2023/07/13 11:52:23;;;;;;;;;;;;;;;;;;5114915;28;19907;-69
2023/07/13 11:54:51;;;;;;;;;;;;;;;;;;5114679;28;20421;-69
2023/07/13 11:57:16;;;;;;;;;;;;;;;;;;5114294;28;19908;-70
2023/07/13 11:59:42;;;;;;;;;;;;;;;;;;5114760;28;19960;-70
2023/07/13 12:02:08;;;;;;;;;;;;;;;;;;5114098;28;19907;-70
2023/07/13 12:04:34;;;;;;;;;;;;;;;;;;5114090;27;19947;-73
2023/07/13 12:07:01;;;;;;;;;;;;;;;;;;5114395;28;19908;-73
2023/07/13 12:09:27;;;;;;;;;;;;;;;;;;5096087;28;19911;-73
2023/07/13 12:11:53;;;;;;;;;;;;;;;;;;5115006;28;19908;-73
2023/07/13 12:14:20;;;;;;;;;;;;;;;;;;5114665;28;19986;-73
2023/07/13 12:16:46;;;;;;;;;;;;;;;;;;5113955;28;19969;-72
2023/07/13 12:19:12;;;;;;;;;;;;;;;;;;5114579;28;19908;-72
2023/07/13 12:21:38;;;;;;;;;;;;;;;;;;5114581;28;19907;-73
2023/07/13 12:24:05;;;;;;;;;;;;;;;;;;5114158;28;19920;-72
2023/07/13 12:26:31;;;;;;;;;;;;;;;;;;5114455;28;20316;-72
2023/07/13 12:28:56;;;;;;;;;;;;;;;;;;5096195;28;19993;-72
2023/07/13 12:31:22;;;;;;;;;;;;;;;;;;5114139;28;19916;-72
2023/07/13 12:33:50;;;;;;;;;;;;;;;;;;5114088;28;19912;-72
2023/07/13 12:36:15;;;;;;;;;;;;;;;;;;5096085;28;19939;-72
2023/07/13 12:38:42;;;;;;;;;;;;;;;;;;5113941;28;19951;-71
2023/07/13 12:41:07;;;;;;;;;;;;;;;;;;5114268;28;19911;-72
2023/07/13 12:43:34;;;;;;;;;;;;;;;;;;5114106;28;19992;-72
2023/07/13 12:46:00;;;;;;;;;;;;;;;;;;5113915;28;19950;-72
2023/07/13 12:48:26;;;;;;;;;;;;;;;;;;5114432;28;19975;-72
2023/07/13 12:50:52;;;;;;;;;;;;;;;;;;5114345;28;19993;-73
2023/07/13 12:53:18;;;;;;;;;;;;;;;;;;5095598;28;19994;-71
2023/07/13 12:55:43;;;;;;;;;;;;;;;;;;5114187;28;19908;-72
2023/07/13 12:58:10;;;;;;;;;;;;;;;;;;5114171;28;19915;-72
2023/07/13 13:00:37;;;;;;;;;;;;;;;;;;5113867;28;19908;-71
2023/07/13 13:03:03;;;;;;;;;;;;;;;;;;5114110;28;19916;-72
2023/07/13 13:05:29;;;;;;;;;;;;;;;;;;5113891;28;20279;-72
2023/07/13 13:07:55;;;;;;;;;;;;;;;;;;5095841;28;20284;-72
2023/07/13 13:10:21;;;;;;;;;;;;;;;;;;5114088;28;19915;-73
2023/07/13 13:12:47;;;;;;;;;;;;;;;;;;5114249;28;20002;-73
2023/07/13 13:15:13;;;;;;;;;;;;;;;;;;5095853;28;20291;-71
2023/07/13 13:17:39;;;;;;;;;;;;;;;;;;5113970;28;19908;-73
2023/07/13 13:20:06;;;;;;;;;;;;;;;;;;5113843;28;19908;-72
2023/07/13 13:22:32;;;;;;;;;;;;;;;;;;5113876;28;20341;-71
2023/07/13 13:24:59;;;;;;;;;;;;;;;;;;5114331;28;20344;-71
2023/07/13 13:27:25;;;;;;;;;;;;;;;;;;5113917;28;19912;-71
2023/07/13 13:29:54;;;;;;;;;;;;;;;;;;5115605;28;19916;-71
2023/07/13 13:32:20;;;;;;;;;;;;;;;;;;5117720;28;19908;-72
2023/07/13 13:34:46;;;;;;;;;;;;;;;;;;5117340;28;19915;-72
2023/07/13 13:37:12;;;;;;;;;;;;;;;;;;5117752;28;19961;-72
2023/07/13 13:39:38;;;;;;;;;;;;;;;;;;5099328;28;19961;-71
2023/07/13 13:42:04;;;;;;;;;;;;;;;;;;5098633;28;19912;-71
2023/07/13 13:44:30;;;;;;;;;;;;;;;;;;5099179;28;19915;-72
2023/07/13 13:46:56;;;;;;;;;;;;;;;;;;5099202;28;20003;-72
2023/07/13 13:49:22;;;;;;;;;;;;;;;;;;5117113;28;19907;-71
2023/07/13 13:51:48;;;;;;;;;;;;;;;;;;5117386;28;20343;-72
2023/07/13 13:54:14;;;;;;;;;;;;;;;;;;5099003;28;19929;-71
2023/07/13 13:56:40;;;;;;;;;;;;;;;;;;5116833;28;20385;-72
2023/07/13 13:59:07;;;;;;;;;;;;;;;;;;5117336;28;20002;-71
2023/07/13 14:01:33;;;;;;;;;;;;;;;;;;5117149;28;20305;-72
2023/07/13 14:03:59;;;;;;;;;;;;;;;;;;5116705;28;20019;-72
2023/07/13 14:06:25;;;;;;;;;;;;;;;;;;5117560;28;20271;-72
2023/07/13 14:08:51;;;;;;;;;;;;;;;;;;5099086;28;20409;-74
2023/07/13 14:11:17;;;;;;;;;;;;;;;;;;5117228;28;19934;-73
2023/07/13 14:13:43;;;;;;;;;;;;;;;;;;5116992;28;20292;-73
2023/07/13 14:16:09;;;;;;;;;;;;;;;;;;5116643;28;19908;-74
2023/07/13 14:18:35;;;;;;;;;;;;;;;;;;5116960;28;19915;-74
2023/07/13 14:21:01;;;;;;;;;;;;;;;;;;5117476;28;19914;-73
2023/07/13 14:23:27;;;;;;;;;;;;;;;;;;5116352;28;20371;-73
2023/07/13 14:25:53;;;;;;;;;;;;;;;;;;5116946;28;19908;-71
2023/07/13 14:28:20;;;;;;;;;;;;;;;;;;5098449;28;20333;-71
2023/07/13 14:30:47;;;;;;;;;;;;;;;;;;5116307;28;19908;-72
2023/07/13 14:33:13;;;;;;;;;;;;;;;;;;5116604;28;19990;-71
2023/07/13 14:35:39;;;;;;;;;;;;;;;;;;5116687;28;19951;-72
2023/07/13 14:38:04;;;;;;;;;;;;;;;;;;5116465;28;19912;-72
2023/07/13 14:40:31;;;;;;;;;;;;;;;;;;5116566;28;20052;-71
2023/07/13 14:42:57;;;;;;;;;;;;;;;;;;5116014;28;20527;-72
2023/07/13 14:45:23;;;;;;;;;;;;;;;;;;5115563;28;19908;-72
2023/07/13 14:47:49;;;;;;;;;;;;;;;;;;5117309;28;19907;-71
2023/07/13 14:50:15;;;;;;;;;;;;;;;;;;5116672;28;20257;-72
2023/07/13 14:52:41;;;;;;;;;;;;;;;;;;5117085;28;19908;-72
2023/07/13 14:55:07;;;;;;;;;;;;;;;;;;5098063;28;19911;-70
2023/07/13 14:57:33;;;;;;;;;;;;;;;;;;5097740;28;19908;-71
2023/07/13 14:59:59;;;;;;;;;;;;;;;;;;5097634;28;19943;-71
2023/07/13 15:02:25;;;;;;;;;;;;;;;;;;5116271;28;19911;-72
2023/07/13 15:04:51;;;;;;;;;;;;;;;;;;5115984;28;19988;-72
2023/07/13 15:07:18;;;;;;;;;;;;;;;;;;5115647;28;19915;-72
2023/07/13 15:09:44;;;;;;;;;;;;;;;;;;5097655;28;19939;-72
2023/07/13 15:12:10;;;;;;;;;;;;;;;;;;5115443;28;19908;-73
2023/07/13 15:14:36;;;;;;;;;;;;;;;;;;5115789;28;19915;-71
2023/07/13 15:17:02;;;;;;;;;;;;;;;;;;5115911;28;20268;-71
2023/07/13 15:19:28;;;;;;;;;;;;;;;;;;5115631;28;20257;-72
2023/07/13 15:21:57;;;;;;;;;;;;;;;;;;5116225;28;19915;-72
2023/07/13 15:24:23;;;;;;;;;;;;;;;;;;5115837;28;20022;-71
2023/07/13 15:26:49;;;;;;;;;;;;;;;;;;5115594;28;20380;-71
2023/07/13 15:29:15;;;;;;;;;;;;;;;;;;5115510;28;20281;-70
2023/07/13 15:31:41;;;;;;;;;;;;;;;;;;5115783;28;19920;-71
2023/07/13 15:34:06;;;;;;;;;;;;;;;;;;5115255;28;19907;-71
2023/07/13 15:36:33;;;;;;;;;;;;;;;;;;5115765;28;20003;-72
2023/07/13 15:38:59;;;;;;;;;;;;;;;;;;5097265;28;19973;-72
2023/07/13 15:41:24;;;;;;;;;;;;;;;;;;5115941;28;20371;-72
2023/07/13 15:43:51;;;;;;;;;;;;;;;;;;5115394;28;20402;-72
2023/07/13 15:46:17;;;;;;;;;;;;;;;;;;5115214;28;19908;-72
2023/07/13 15:48:44;;;;;;;;;;;;;;;;;;5114780;28;20325;-73
2023/07/13 15:51:10;;;;;;;;;;;;;;;;;;5115315;28;20019;-73
2023/07/13 15:53:37;;;;;;;;;;;;;;;;;;5114627;28;19908;-72
2023/07/13 15:56:03;;;;;;;;;;;;;;;;;;5114629;28;19914;-72
2023/07/13 15:58:29;;;;;;;;;;;;;;;;;;5096762;28;20002;-72
2023/07/13 16:00:54;;;;;;;;;;;;;;;;;;5115355;28;19960;-72
2023/07/13 16:03:20;;;;;;;;;;;;;;;;;;5114413;28;20019;-72
2023/07/13 16:05:47;;;;;;;;;;;;;;;;;;5096558;28;19915;-72
2023/07/13 16:08:13;;;;;;;;;;;;;;;;;;5115190;28;19908;-72
2023/07/13 16:10:40;;;;;;;;;;;;;;;;;;5115158;28;20287;-72
2023/07/13 16:13:06;;;;;;;;;;;;;;;;;;5096474;28;19908;-72
2023/07/13 16:15:32;;;;;;;;;;;;;;;;;;5096065;28;19908;-72
2023/07/13 16:17:58;;;;;;;;;;;;;;;;;;5114863;28;19908;-73
2023/07/13 16:20:24;;;;;;;;;;;;;;;;;;5114567;28;19915;-73
2023/07/13 16:22:50;;;;;;;;;;;;;;;;;;5114313;28;19982;-72
2023/07/13 16:25:18;;;;;;;;;;;;;;;;;;5096401;28;19908;-73
2023/07/13 16:27:44;;;;;;;;;;;;;;;;;;5114664;28;19908;-71
2023/07/13 16:30:10;;;;;;;;;;;;;;;;;;5095835;28;19915;-72
2023/07/13 16:32:37;;;;;;;;;;;;;;;;;;5096917;28;19907;-73
2023/07/13 16:35:05;;;;;;;;;;;;;;;;;;5114770;28;19929;-72
2023/07/13 16:37:31;;;;;;;;;;;;;;;;;;5114082;28;19908;-72
2023/07/13 16:40:00;;;;;;;;;;;;;;;;;;5115151;28;20006;-72
2023/07/13 16:42:26;;;;;;;;;;;;;;;;;;5114126;28;19920;-71
2023/07/13 16:44:53;;;;;;;;;;;;;;;;;;5114063;28;19914;-71
2023/07/13 16:47:19;;;;;;;;;;;;;;;;;;5114347;28;19946;-72
2023/07/13 16:49:45;;;;;;;;;;;;;;;;;;5096163;28;19908;-72
2023/07/13 16:52:11;;;;;;;;;;;;;;;;;;5114041;28;19915;-72
2023/07/13 16:54:41;;;;;;;;;;;;;;;;;;5114287;28;20291;-72
2023/07/13 16:57:07;;;;;;;;;;;;;;;;;;5114209;28;20003;-72
2023/07/13 16:59:33;;;;;;;;;;;;;;;;;;5113997;28;19954;-72
2023/07/13 17:01:59;;;;;;;;;;;;;;;;;;5114260;28;19908;-72
2023/07/13 17:04:27;;;;;;;;;;;;;;;;;;5115767;28;19916;-72
2023/07/13 17:06:53;;;;;;;;;;;;;;;;;;5117989;28;19961;-72
2023/07/13 17:09:19;;;;;;;;;;;;;;;;;;5118566;28;20325;-72
2023/07/13 17:11:45;;;;;;;;;;;;;;;;;;5099504;28;20283;-72
2023/07/13 17:14:11;;;;;;;;;;;;;;;;;;5099972;28;19908;-71
2023/07/13 17:16:37;;;;;;;;;;;;;;;;;;5118096;28;19912;-72
2023/07/13 17:19:04;;;;;;;;;;;;;;;;;;5117689;28;19908;-71
2023/07/13 17:21:30;;;;;;;;;;;;;;;;;;5099754;28;19957;-71
2023/07/13 17:23:56;;;;;;;;;;;;;;;;;;5117981;28;20322;-70
2023/07/13 17:26:23;;;;;;;;;;;;;;;;;;5099289;28;20332;-71
2023/07/13 17:28:49;;;;;;;;;;;;;;;;;;5117842;28;19907;-71
2023/07/13 17:31:17;;;;;;;;;;;;;;;;;;5117847;28;19907;-71
2023/07/13 17:33:43;;;;;;;;;;;;;;;;;;5099201;28;20331;-71
2023/07/13 17:36:11;;;;;;;;;;;;;;;;;;5118011;28;19908;-73
2023/07/13 17:38:40;;;;;;;;;;;;;;;;;;5117775;28;19955;-72
2023/07/13 17:41:08;;;;;;;;;;;;;;;;;;5117215;28;19947;-71
2023/07/13 17:43:34;;;;;;;;;;;;;;;;;;5100096;28;20014;-72
2023/07/13 17:46:00;;;;;;;;;;;;;;;;;;5117867;28;20371;-72
2023/07/13 17:48:26;;;;;;;;;;;;;;;;;;5117361;28;19915;-71
2023/07/13 17:50:55;;;;;;;;;;;;;;;;;;5117679;28;19907;-73
2023/07/13 17:53:21;;;;;;;;;;;;;;;;;;5117479;28;19911;-71
2023/07/13 17:55:51;;;;;;;;;;;;;;;;;;5117017;28;19987;-72
2023/07/13 17:58:17;;;;;;;;;;;;;;;;;;5117346;28;19912;-74
2023/07/13 18:00:43;;;;;;;;;;;;;;;;;;5117419;28;20383;-72
2023/07/13 18:03:09;;;;;;;;;;;;;;;;;;5116683;28;19916;-71
2023/07/13 18:05:35;;;;;;;;;;;;;;;;;;5117603;28;19915;-72
2023/07/13 18:08:04;;;;;;;;;;;;;;;;;;5116703;28;19908;-73
2023/07/13 18:10:30;;;;;;;;;;;;;;;;;;5117084;28;20322;-73
2023/07/13 18:12:56;;;;;;;;;;;;;;;;;;5117187;28;19908;-72
2023/07/13 18:15:24;;;;;;;;;;;;;;;;;;5116150;28;19908;-73
2023/07/13 18:17:53;;;;;;;;;;;;;;;;;;5098595;28;19908;-72
2023/07/13 18:20:21;;;;;;;;;;;;;;;;;;5117070;28;19914;-72
2023/07/13 18:22:47;;;;;;;;;;;;;;;;;;5116514;28;19912;-72
2023/07/13 18:25:13;;;;;;;;;;;;;;;;;;5116944;28;19908;-72
2023/07/13 18:27:39;;;;;;;;;;;;;;;;;;5098452;28;19908;-71
2023/07/13 18:30:05;;;;;;;;;;;;;;;;;;5116426;28;20023;-73
2023/07/13 18:32:31;;;;;;;;;;;;;;;;;;5116925;28;19908;-71
2023/07/13 18:34:57;;;;;;;;;;;;;;;;;;5116834;28;19911;-73
2023/07/13 18:37:23;;;;;;;;;;;;;;;;;;5116182;28;19907;-72
2023/07/13 18:39:50;;;;;;;;;;;;;;;;;;5116586;28;19907;-72